Caliente, Nevada Weather observations

Data are for observation ending at time listed.
 Day   Time    Ave.   Ave.  Ave.  Vector   Max.   Stn.    Total    Solar   Ave.  
  of    of     Air    Rel.  Wind   Wind    Wind   Baro.  Precip.   Rad.    Soil  
Year   Day     Temp.  Hum.  Speed  Dir.    Gust   Pres.                    Temp. 
2016   (PST)    F      %     mph   deg.    mph     mb.     in.     W/m2     F   
------------------------------------------------------------------------------
 144    2:10   45.3    35    0.8    59      3.7   862.1    0.00       0    99999.0
 144    2:20   45.1    36    1.0    27      3.4   862.2    0.00       0    99999.0
 144    2:30   44.4    37    0.7   113      2.6   862.2    0.00       0    99999.0
 144    2:40   44.1    38    0.9    98      2.9   862.2    0.00       0    99999.0
 144    2:50   44.1    36    1.6    28      3.4   862.3    0.00       0    99999.0
 144    3:00   43.8    38    0.7    96      2.1   862.3    0.00       0    99999.0
 144    3:10   42.8    39    1.2   127      2.4   862.3    0.00       0    99999.0
 144    3:20   42.7    40    0.3    62      1.6   862.2    0.00       0    99999.0
 144    3:30   42.2    40    0.4   128      1.5   862.3    0.00       0    99999.0
 144    3:40   42.2    40    0.5    15      2.3   862.3    0.00       0    99999.0
 144    3:50   42.0    41    0.2   355      1.5   862.3    0.00       0    99999.0
 144    4:00   41.2    43    0.5   107      1.8   862.4    0.00       0    99999.0
 144    4:10   41.1    42    0.7   344      2.4   862.4    0.00       0    99999.0
 144    4:20   40.9    44    0.2    45      1.2   862.5    0.00       0    99999.0
 144    4:30   40.3    44    0.3    92      1.4   862.5    0.00       3    99999.0
 144    4:40   39.8    45    0.0     0      0.0   862.5    0.00       6    99999.0
 144    4:50   40.0    46    0.4   243      3.4   862.6    0.00      10    99999.0
 144    5:00   40.0    46    0.6    31      1.7   862.7    0.00      13    99999.0
 144    5:10   40.0    46    0.5   102      1.6   862.8    0.00      19    99999.0
 144    5:20   40.0    46    1.2   101      2.3   863.0    0.00      25    99999.0
 144    5:30   40.7    45    0.5    57      2.3   863.1    0.00      29    99999.0
 144    5:40   41.4    43    1.0    85      2.0   863.2    0.00      36    99999.0
 144    5:50   41.9    42    1.3    18      2.6   863.2    0.00      32    99999.0
 144    6:00   42.8    41    0.9    57      2.7   863.2    0.00      44    99999.0
 144    6:10   44.0    39    1.6   346      4.5   863.3    0.00      59    99999.0
 144    6:20   44.8    35    1.0    25      3.4   863.3    0.00      42    99999.0
 144    6:30   46.2    32    3.3    30      9.2   863.3    0.00      91    99999.0
 144    6:40   47.0    31    3.9    22      7.5   863.3    0.00     303    99999.0
 144    6:50   48.3    30    2.7    35      6.7   863.3    0.00     353    99999.0
 144    7:00   49.6    29    1.6    42      4.9   863.3    0.00     383    99999.0
 144    7:10   51.7    28    2.2    28      6.4   863.3    0.00     412    99999.0
 144    7:20   52.9    27    2.5   347      4.6   863.2    0.00     441    99999.0
 144    7:30   54.6    25    1.7     3      4.0   863.1    0.00     469    99999.0
 144    7:40   55.0    25    1.9   322      4.1   863.1    0.00     496    99999.0
 144    7:50   56.3    24    1.8   289      3.8   863.0    0.00     522    99999.0
 144    8:00   57.5    24    1.1   241      3.4   862.9    0.00     549    99999.0
 144    8:10   59.0    25    1.6   149      4.1   862.8    0.00     574    99999.0
 144    8:20   59.7    23    1.6   222      3.9   862.7    0.00     597    99999.0
 144    8:30   60.2    22    2.0   278      4.5   862.6    0.00     621    99999.0
 144    8:40   62.3    21    0.9    29      2.7   862.6    0.00     640    99999.0
 144    8:50   64.3    18    1.5   256      5.1   862.5    0.00     657    99999.0
 144    9:00   63.9    19    2.1   250      7.2   862.4    0.00     678    99999.0
 144    9:10   64.3    18    2.0   243      5.0   862.2    0.00     697    99999.0
 144    9:20   64.7    18    1.9   184      4.4   862.1    0.00     715    99999.0
 144    9:30   65.6    19    3.3   245      9.9   862.0    0.00     735    99999.0
 144    9:40   66.0    18    3.1    85      8.2   861.9    0.00     740    99999.0
 144    9:50   67.1    18    6.6   255     16.5   861.7    0.00     770    99999.0
 144   10:00   67.3    17   12.6   249     19.9   861.5    0.00     793    99999.0
 144   10:10   66.8    17   10.3   250     18.4   861.6    0.00     803    99999.0
 144   10:20   66.8    17   10.3   248     18.5   861.6    0.00     814    99999.0
 144   10:30   66.9    16    8.4   247     15.8   861.6    0.00     819    99999.0
 144   10:40   67.1    16   10.4   247     21.4   861.5    0.00     834    99999.0
 144   10:50   68.0    16   10.4   250     22.4   861.4    0.00     768    99999.0
 144   11:00   67.5    16    8.3   243     17.4   861.4    0.00     810    99999.0
 144   11:10   68.8    15    4.4   197     13.9   861.4    0.00     835    99999.0
 144   11:20   70.0    15    3.8   241     15.3   861.2    0.00     836    99999.0
 144   11:30   70.0    14    5.1   252     14.8   861.1    0.00     813    99999.0
 144   11:40   69.5    14   10.5   247     20.4   861.0    0.00     832    99999.0
 144   11:50   69.0    15    8.0   247     16.1   861.0    0.00     847    99999.0
 144   12:00   69.8    14    9.0   252     18.4   860.8    0.00     842    99999.0
 144   12:10   69.9    14   10.3   251     20.5   860.7    0.00     846    99999.0
 144   12:20   70.2    14    7.7   251     16.9   860.7    0.00     804    99999.0
 144   12:30   70.1    14    6.8   242     17.0   860.6    0.00     804    99999.0
 144   12:40   70.6    14    5.7   244     15.6   860.5    0.00     768    99999.0
 144   12:50   69.8    13    9.9   249     16.2   860.5    0.00     762    99999.0
 144   13:00   70.5    13   11.7   250     20.0   860.3    0.00     756    99999.0
 144   13:10   69.7    14   10.8   246     20.2   860.2    0.00     798    99999.0
 144   13:20   70.5    14    9.0   246     19.9   860.2    0.00     794    99999.0
 144   13:30   70.7    14    9.5   250     18.6   860.1    0.00     780    99999.0
 144   13:40   71.2    13    9.9   246     17.7   860.0    0.00     711    99999.0
 144   13:50   70.5    13   13.8   246     22.6   859.9    0.00     661    99999.0
 144   14:00   70.6    13    7.9   247     15.5   859.9    0.00     662    99999.0
 144   14:10   71.2    12   10.2   246     18.0   859.8    0.00     664    99999.0
 144   14:20   70.8    12   11.8   246     22.4   859.7    0.00     640    99999.0
 144   14:30   71.4    12    8.3   246     16.9   859.7    0.00     679    99999.0
 144   14:40   71.3    12    8.5   246     17.3   859.7    0.00     639    99999.0
 144   14:50   71.2    12    9.2   248     21.3   859.6    0.00     644    99999.0
 144   15:00   70.9    12   10.1   248     20.8   859.5    0.00     600    99999.0
 144   15:10   71.1    12    9.0   249     19.7   859.5    0.00     602    99999.0
 144   15:20   71.5    13    7.0   247     18.4   859.4    0.00     569    99999.0
 144   15:30   71.2    13   10.6   248     21.0   859.2    0.00     548    99999.0
 144   15:40   71.3    13    5.3   246     12.6   859.3    0.00     518    99999.0
 144   15:50   71.4    12    7.3   246     17.9   859.2    0.00     489    99999.0
 144   16:00   71.3    12    4.5   222     11.7   859.2    0.00     458    99999.0
 144   16:10   71.5    12    3.8   228      9.7   859.1    0.00     428    99999.0
 144   16:20   71.1    12    6.8   247     14.2   859.0    0.00     404    99999.0
 144   16:30   70.7    12    6.5   246     18.6   859.0    0.00     373    99999.0
 144   16:40   71.0    13    4.1   234     13.4   858.9    0.00     344    99999.0
 144   16:50   70.8    13    6.2   235     15.6   858.9    0.00     310    99999.0
 144   17:00   70.3    13    6.4   240     17.0   858.8    0.00     245    99999.0
 144   17:10   70.4    13    5.9   246     11.3   858.8    0.00     270    99999.0
 144   17:20   70.5    13    7.1   247     14.2   858.7    0.00     233    99999.0
 144   17:30   70.2    13    4.9   242     12.1   858.7    0.00     178    99999.0
 144   17:40   69.9    14    3.0   157      7.8   858.6    0.00     163    99999.0
 144   17:50   70.0    13    4.0   241     14.5   858.7    0.00     140    99999.0
 144   18:00   69.7    13    4.2   246      8.8   858.6    0.00     115    99999.0
 144   18:10   69.6    14    2.2   233      5.7   858.5    0.00      87    99999.0
 144   18:20   69.2    14    3.0   232     10.0   858.5    0.00      47    99999.0
 144   18:30   68.2    14    2.2   236      7.2   858.6    0.00      19    99999.0
 144   18:40   67.6    15    2.4   236      7.8   858.6    0.00      12    99999.0
 144   18:50   67.3    15    1.6   200      5.9   858.6    0.00       7    99999.0
 144   19:00   66.9    16    0.8   187      4.4   858.7    0.00       3    99999.0
 144   19:10   66.0    17    2.0   135      6.0   858.7    0.00       2    99999.0
 144   19:20   65.3    17    3.2   132      6.8   858.7    0.00       1    99999.0
 144   19:30   64.4    18    2.7   122      5.1   858.7    0.00       1    99999.0
 144   19:40   63.6    19    2.6   123      4.3   858.7    0.00       1    99999.0
 144   19:50   63.2    20    2.3   121      4.4   858.8    0.00       1    99999.0
 144   20:00   62.8    20    2.8   129      6.1   858.8    0.00       1    99999.0
 144   20:10   62.7    21    2.0   142      5.8   858.9    0.00       1    99999.0
 144   20:20   62.2    21    1.9   135      5.2   859.0    0.00       1    99999.0
 144   20:30   62.0    21    4.1   136      7.3   859.1    0.00       1    99999.0
 144   20:40   61.7    21    4.0   135      6.4   859.1    0.00       1    99999.0
 144   20:50   61.5    22    4.1   131      6.1   859.2    0.00       1    99999.0
 144   21:00   60.9    22    2.9   131      4.9   859.3    0.00       1    99999.0
 144   21:10   59.9    23    2.2   113      4.2   859.4    0.00       1    99999.0
 144   21:20   60.7    22    3.6   132     11.7   859.4    0.00       1    99999.0
 144   21:30   62.5    21    4.3   128      9.6   859.3    0.00       0    99999.0
 144   21:40   62.8    20    5.4   137     12.1   859.3    0.00       1    99999.0
 144   21:50   62.9    20    3.6   144      9.5   859.3    0.00       1    99999.0
 144   22:00   62.5    20    1.9   159      6.0   859.4    0.00       1    99999.0
 144   22:10   61.6    21    1.6   245      3.4   859.4    0.00       1    99999.0
 144   22:20   60.1    23    1.4   240      3.1   859.3    0.00       1    99999.0
 144   22:30   59.1    24    1.5   239      3.9   859.4    0.00       1    99999.0
 144   22:40   58.2    24    1.9   244      4.2   859.4    0.00       0    99999.0
 144   22:50   57.2    26    1.6   243      5.0   859.5    0.00       0    99999.0
 144   23:00   56.5    26    2.0   241      4.9   859.5    0.00       0    99999.0
 144   23:10   56.0    27    0.6   220      2.0   859.6    0.00       0    99999.0
 144   23:20   55.5    28    0.3   243      1.8   859.6    0.00       0    99999.0
 144   23:30   54.8    30    0.3   273      1.5   859.6    0.00       0    99999.0
 144   23:40   53.7    32    0.1    97      1.2   859.6    0.00       0    99999.0
 144   23:50   52.9    32    0.1   177      1.7   859.6    0.00       0    99999.0
 145    0:00   52.6    32    0.5   263      1.7   859.6    0.00       0    99999.0
 145    0:10   52.3    33    0.0     0      0.0   859.7    0.00       0    99999.0
 145    0:20   52.4    32    0.4   241      1.7   859.6    0.00       0    99999.0
 145    0:30   51.8    33    0.2   220      1.2   859.5    0.00       0    99999.0
 145    0:40   50.7    34    0.2   109      1.5   859.5    0.00       0    99999.0
 145    0:50   50.6    34    0.6   168      2.4   859.5    0.00       0    99999.0
 145    1:00   51.2    33    0.6   238      2.1   859.6    0.00       0    99999.0
 145    1:10   50.9    34    0.4   265      3.4   859.6    0.00       0    99999.0
 145    1:20   51.1    33    0.9   271      2.9   859.7    0.00       0    99999.0
 145    1:30   51.1    33    0.5   205      1.8   859.7    0.00       0    99999.0
 145    1:40   50.8    34    0.1    42      1.3   859.7    0.00       0    99999.0
 145    1:50   50.6    33    1.1   327      2.6   859.6    0.00       0    99999.0
 145    2:00   49.6    35    0.9   102      2.6   859.6    0.00       0    99999.0

Return to Caliente, Nevada graphs page.


Western Regional Climate Center,wrcc@dri.edu